createdAt,value
2022-10-14T00:00:22.881Z,87.80
2022-10-14T00:02:49.940Z,87.43
2022-10-14T00:05:16.349Z,87.54
2022-10-14T00:07:43.471Z,87.60
2022-10-14T00:10:09.894Z,87.58
2022-10-14T00:12:36.256Z,88.02
2022-10-14T00:15:02.705Z,87.99
2022-10-14T00:17:29.104Z,87.97
2022-10-14T00:19:55.507Z,88.07
2022-10-14T00:22:21.882Z,87.98
2022-10-14T00:24:48.260Z,88.11
2022-10-14T00:27:14.670Z,87.90
2022-10-14T00:29:41.092Z,88.14
2022-10-14T00:32:07.492Z,88.16
2022-10-14T00:34:34.231Z,88.12
2022-10-14T00:37:00.589Z,88.02
2022-10-14T00:39:27.135Z,88.02
2022-10-14T00:41:54.662Z,88.19
2022-10-14T00:44:21.005Z,87.95
2022-10-14T00:46:48.451Z,88.11
2022-10-14T00:49:14.797Z,88.06
2022-10-14T00:51:43.106Z,88.27
2022-10-14T00:54:10.199Z,88.33
2022-10-14T00:56:36.778Z,88.45
2022-10-14T00:59:04.259Z,88.19
2022-10-14T01:01:31.232Z,88.41
2022-10-14T01:03:57.593Z,88.50
2022-10-14T01:06:27.147Z,88.82
2022-10-14T01:08:53.511Z,88.64
2022-10-14T01:12:00.168Z,88.48
2022-10-14T01:14:49.295Z,88.85
2022-10-14T01:17:18.735Z,88.77
2022-10-14T01:20:03.909Z,88.95
2022-10-14T01:22:35.225Z,88.97
2022-10-14T01:25:20.499Z,89.43
2022-10-14T01:27:49.938Z,90.26
2022-10-14T01:30:18.531Z,90.42
2022-10-14T01:32:59.972Z,90.74
2022-10-14T01:35:36.381Z,90.46
2022-10-14T01:38:12.210Z,90.65
2022-10-14T01:40:55.133Z,91.32
2022-10-14T01:43:23.023Z,91.40
2022-10-14T01:45:50.706Z,91.38
2022-10-14T01:48:18.584Z,91.41
2022-10-14T01:50:47.137Z,91.21
2022-10-14T01:53:20.211Z,91.78
2022-10-14T01:55:47.338Z,91.75
2022-10-14T01:58:15.716Z,91.81
2022-10-14T02:00:42.118Z,92.43
2022-10-14T02:03:09.226Z,93.17
2022-10-14T02:05:44.899Z,93.11
2022-10-14T02:08:23.453Z,93.67
2022-10-14T02:11:05.352Z,93.68
2022-10-14T02:13:34.492Z,94.15
2022-10-14T02:16:00.858Z,94.07
2022-10-14T02:18:30.354Z,93.74
2022-10-14T02:21:05.768Z,93.42
2022-10-14T02:23:36.641Z,93.77
2022-10-14T02:26:04.008Z,94.07
2022-10-14T02:28:32.560Z,94.00
2022-10-14T02:31:07.703Z,94.31
2022-10-14T02:33:37.046Z,94.54
2022-10-14T02:36:05.727Z,94.35
2022-10-14T02:38:33.145Z,94.72
2022-10-14T02:41:01.554Z,94.57
2022-10-14T02:43:28.021Z,94.54
2022-10-14T02:45:57.807Z,94.56
2022-10-14T02:48:24.216Z,95.28
2022-10-14T02:50:50.598Z,95.50
2022-10-14T02:53:17.209Z,95.11
2022-10-14T02:55:43.595Z,94.91
2022-10-14T02:58:09.988Z,94.76
2022-10-14T03:00:36.381Z,94.89
2022-10-14T03:03:02.794Z,94.83
2022-10-14T03:05:29.268Z,94.72
2022-10-14T03:07:55.641Z,94.99
2022-10-14T03:10:22.083Z,94.81
2022-10-14T03:12:48.566Z,94.67
2022-10-14T03:15:14.967Z,94.67
2022-10-14T03:17:41.322Z,94.65
2022-10-14T03:20:08.013Z,94.51
2022-10-14T03:22:34.513Z,94.77
2022-10-14T03:25:01.028Z,94.54
2022-10-14T03:27:27.474Z,94.39
2022-10-14T03:29:53.913Z,94.79
2022-10-14T03:32:20.590Z,94.55
2022-10-14T03:34:47.086Z,94.80
2022-10-14T03:37:13.550Z,94.76
2022-10-14T03:39:39.914Z,94.96
2022-10-14T03:42:06.323Z,95.56
2022-10-14T03:44:32.711Z,95.93
2022-10-14T03:46:59.173Z,96.09
2022-10-14T03:49:25.563Z,96.28
2022-10-14T03:51:51.926Z,96.59
2022-10-14T03:54:18.351Z,96.29
2022-10-14T03:56:44.833Z,96.17
2022-10-14T03:59:11.266Z,95.96
2022-10-14T04:01:37.718Z,96.00
2022-10-14T04:04:04.113Z,96.16
2022-10-14T04:06:31.492Z,96.06
2022-10-14T04:08:57.978Z,96.18
2022-10-14T04:11:24.401Z,96.10
2022-10-14T04:13:50.755Z,96.16
2022-10-14T04:16:17.146Z,96.59
2022-10-14T04:18:43.526Z,96.67
2022-10-14T04:21:11.672Z,96.61
2022-10-14T04:23:38.389Z,97.07
2022-10-14T04:26:05.770Z,96.95
2022-10-14T04:28:32.532Z,97.26
2022-10-14T04:30:59.014Z,97.77
2022-10-14T04:33:25.476Z,97.57
2022-10-14T04:35:57.170Z,97.41
2022-10-14T04:38:23.616Z,97.09
2022-10-14T04:40:50.015Z,96.87
2022-10-14T04:43:16.380Z,96.76
2022-10-14T04:45:42.801Z,96.94
2022-10-14T04:48:09.208Z,97.02
2022-10-14T04:50:35.718Z,97.11
2022-10-14T04:53:02.350Z,96.92
2022-10-14T04:55:28.755Z,96.89
2022-10-14T04:57:55.122Z,96.65
2022-10-14T05:00:21.752Z,96.10
2022-10-14T05:02:48.162Z,95.79
2022-10-14T05:05:17.471Z,95.73
2022-10-14T05:07:43.929Z,95.67
2022-10-14T05:10:10.358Z,95.99
2022-10-14T05:12:37.177Z,95.98
2022-10-14T05:15:05.340Z,96.78
2022-10-14T05:17:32.613Z,96.91
2022-10-14T05:19:59.010Z,97.43
2022-10-14T05:22:25.424Z,97.51
2022-10-14T05:24:51.844Z,97.99
2022-10-14T05:27:18.372Z,98.51
2022-10-14T05:29:44.813Z,98.65
2022-10-14T05:32:11.610Z,98.48
2022-10-14T05:34:37.966Z,98.35
2022-10-14T05:37:04.409Z,98.33
2022-10-14T05:39:30.864Z,98.69
2022-10-14T05:41:57.257Z,98.32
2022-10-14T05:44:23.675Z,98.28
2022-10-14T05:46:50.171Z,98.36
2022-10-14T05:49:16.570Z,98.27
2022-10-14T05:51:42.998Z,98.66
2022-10-14T05:54:09.580Z,98.86
2022-10-14T05:56:35.952Z,99.06
2022-10-14T05:59:02.304Z,98.88
2022-10-14T06:01:28.748Z,98.63
2022-10-14T06:03:55.185Z,98.60
2022-10-14T06:06:25.282Z,98.30
2022-10-14T06:08:54.905Z,98.86
2022-10-14T06:11:21.262Z,99.68
2022-10-14T06:13:47.675Z,99.74
2022-10-14T06:16:14.116Z,99.72
2022-10-14T06:18:40.694Z,99.91
2022-10-14T06:21:07.690Z,99.96
2022-10-14T06:23:34.504Z,100.00
2022-10-14T06:26:03.684Z,100.00
2022-10-14T06:28:30.349Z,100.00
2022-10-14T06:30:56.744Z,100.00
2022-10-14T06:33:23.179Z,100.00
2022-10-14T06:35:49.564Z,99.39
2022-10-14T06:38:16.100Z,99.34
2022-10-14T06:40:42.478Z,99.07
2022-10-14T06:43:09.038Z,99.23
2022-10-14T06:45:35.402Z,99.41
2022-10-14T06:48:01.984Z,99.47
2022-10-14T06:50:28.359Z,99.58
2022-10-14T06:52:54.740Z,99.58
2022-10-14T06:55:21.115Z,99.81
2022-10-14T06:57:47.496Z,99.89
2022-10-14T07:00:14.052Z,99.66
2022-10-14T07:02:40.572Z,100.00
2022-10-14T07:05:07.054Z,100.00
2022-10-14T07:07:33.508Z,100.00
2022-10-14T07:10:00.004Z,100.00
2022-10-14T07:12:26.949Z,100.00
2022-10-14T07:14:53.456Z,100.00
2022-10-14T07:17:20.242Z,100.00
2022-10-14T07:19:46.791Z,100.00
2022-10-14T07:22:13.167Z,100.00
2022-10-14T07:24:39.520Z,100.00
2022-10-14T07:27:09.067Z,100.00
2022-10-14T07:29:35.451Z,100.00
2022-10-14T07:32:01.862Z,100.00
2022-10-14T07:34:28.363Z,100.00
2022-10-14T07:36:54.787Z,100.00
2022-10-14T07:39:21.165Z,100.00
2022-10-14T07:41:48.417Z,100.00
2022-10-14T07:44:16.770Z,100.00
2022-10-14T07:46:44.546Z,100.00
2022-10-14T07:49:15.637Z,100.00
2022-10-14T07:51:42.137Z,100.00
2022-10-14T07:54:09.969Z,100.00
2022-10-14T07:56:40.297Z,100.00
2022-10-14T07:59:06.732Z,100.00
2022-10-14T08:01:33.222Z,100.00
2022-10-14T08:03:59.666Z,100.00
2022-10-14T08:06:26.568Z,100.00
2022-10-14T08:08:53.072Z,100.00
2022-10-14T08:11:24.614Z,100.00
2022-10-14T08:13:51.674Z,100.00
2022-10-14T08:16:23.460Z,100.00
2022-10-14T08:18:50.327Z,100.00
2022-10-14T08:21:17.448Z,100.00
2022-10-14T08:23:43.877Z,100.00
2022-10-14T08:26:30.972Z,100.00
2022-10-14T08:29:01.366Z,100.00
2022-10-14T08:31:27.801Z,100.00
2022-10-14T08:33:54.219Z,100.00
2022-10-14T08:36:21.077Z,100.00
2022-10-14T08:38:48.278Z,100.00
2022-10-14T08:41:14.944Z,100.00
2022-10-14T08:43:47.424Z,100.00
2022-10-14T08:46:20.260Z,100.00
2022-10-14T08:48:47.913Z,100.00
2022-10-14T08:51:16.234Z,100.00
2022-10-14T08:53:48.696Z,100.00
2022-10-14T08:56:15.094Z,100.00
2022-10-14T08:58:43.513Z,100.00
2022-10-14T09:01:22.059Z,100.00
2022-10-14T09:03:48.566Z,100.00
2022-10-14T09:06:32.281Z,100.00
2022-10-14T09:09:17.438Z,100.00
2022-10-14T09:11:45.233Z,100.00
2022-10-14T09:14:18.143Z,100.00
2022-10-14T09:16:50.375Z,100.00
2022-10-14T09:19:31.679Z,100.00
2022-10-14T09:21:58.984Z,100.00
2022-10-14T09:24:26.951Z,100.00
2022-10-14T09:27:13.850Z,100.00
2022-10-14T09:29:47.067Z,100.00
2022-10-14T09:32:20.745Z,100.00
2022-10-14T09:34:52.277Z,100.00
2022-10-14T09:37:29.036Z,100.00
2022-10-14T09:40:10.074Z,100.00
2022-10-14T09:42:42.496Z,100.00
2022-10-14T09:45:11.109Z,100.00
2022-10-14T09:47:42.108Z,100.00
2022-10-14T09:50:10.134Z,100.00
2022-10-14T09:52:38.875Z,100.00
2022-10-14T09:55:08.790Z,100.00
2022-10-14T09:57:35.268Z,100.00
2022-10-14T10:00:04.258Z,100.00
2022-10-14T10:02:42.344Z,100.00
2022-10-14T10:05:28.780Z,100.00
2022-10-14T10:08:04.354Z,100.00
2022-10-14T10:10:31.080Z,100.00
2022-10-14T10:12:58.009Z,100.00
2022-10-14T10:15:24.476Z,100.00
2022-10-14T10:17:51.057Z,100.00
2022-10-14T10:20:19.500Z,100.00
2022-10-14T10:22:46.331Z,100.00
2022-10-14T10:25:12.826Z,100.00
2022-10-14T10:27:39.735Z,100.00
2022-10-14T10:30:18.782Z,100.00
2022-10-14T10:32:49.488Z,100.00
2022-10-14T10:35:15.956Z,98.17
2022-10-14T10:37:51.543Z,95.86
2022-10-14T10:40:18.482Z,94.64
2022-10-14T10:42:55.156Z,92.55
2022-10-14T10:45:36.438Z,92.53
2022-10-14T10:48:21.578Z,88.88
2022-10-14T10:50:48.015Z,84.52
2022-10-14T10:53:24.789Z,85.64
2022-10-14T10:56:04.328Z,87.05
2022-10-14T10:58:55.167Z,88.63
2022-10-14T11:01:40.448Z,86.45
2022-10-14T11:04:20.865Z,86.97
2022-10-14T11:07:09.212Z,86.75
2022-10-14T11:10:00.213Z,86.72
2022-10-14T11:12:45.181Z,87.27
2022-10-14T11:18:00.239Z,85.47
2022-10-14T11:20:42.304Z,85.61
2022-10-14T11:23:23.755Z,85.15
2022-10-14T11:25:56.317Z,84.21
2022-10-14T11:28:49.027Z,79.51
2022-10-14T11:31:26.848Z,81.18
2022-10-14T11:34:02.252Z,83.92
2022-10-14T11:36:45.138Z,83.04
2022-10-14T11:39:21.668Z,83.88
2022-10-14T11:41:57.142Z,84.31
2022-10-14T11:44:42.695Z,82.72
2022-10-14T11:47:29.469Z,81.81
2022-10-14T11:50:15.055Z,82.21
2022-10-14T11:52:45.695Z,83.12
2022-10-14T11:55:16.216Z,82.18
2022-10-14T11:57:45.477Z,81.65
2022-10-14T12:00:12.015Z,82.69
2022-10-14T12:02:57.064Z,81.72
2022-10-14T12:05:42.088Z,82.17
2022-10-14T12:08:14.632Z,82.40
2022-10-14T12:10:52.500Z,82.70
2022-10-14T12:13:22.330Z,81.20
2022-10-14T12:15:50.380Z,80.92
2022-10-14T12:18:16.804Z,81.38
2022-10-14T12:20:57.334Z,80.54
2022-10-14T12:23:33.334Z,83.01
2022-10-14T12:26:02.840Z,83.24
2022-10-14T12:28:29.457Z,82.38
2022-10-14T12:31:15.947Z,82.34
2022-10-14T12:34:01.102Z,83.17
2022-10-14T12:36:31.406Z,82.83
2022-10-14T12:39:16.472Z,83.50
2022-10-14T12:41:50.911Z,83.06
2022-10-14T12:44:19.246Z,81.98
2022-10-14T12:46:46.865Z,81.73
2022-10-14T12:49:42.371Z,80.75
2022-10-14T12:52:08.945Z,81.78
2022-10-14T12:54:37.092Z,81.78
2022-10-14T12:57:15.866Z,81.88
2022-10-14T12:59:42.280Z,82.53
2022-10-14T13:02:27.499Z,81.83
2022-10-14T13:04:54.943Z,82.12
2022-10-14T13:07:42.905Z,82.16
2022-10-14T13:10:32.595Z,83.50
2022-10-14T13:13:00.521Z,84.19
2022-10-14T13:15:37.985Z,83.90
2022-10-14T13:18:24.627Z,83.67
2022-10-14T13:20:51.724Z,83.86
2022-10-14T13:23:30.147Z,84.02
2022-10-14T13:26:12.121Z,84.12
2022-10-14T13:28:42.527Z,84.49
2022-10-14T13:31:13.082Z,84.08
2022-10-14T13:33:49.226Z,84.32
2022-10-14T13:36:33.377Z,84.62
2022-10-14T13:39:01.142Z,85.18
2022-10-14T13:41:31.512Z,85.09
2022-10-14T13:43:59.704Z,85.16
2022-10-14T13:46:35.357Z,85.08
2022-10-14T13:49:04.103Z,85.47
2022-10-14T13:51:49.377Z,85.27
2022-10-14T13:54:16.110Z,85.56
2022-10-14T13:56:43.008Z,85.54
2022-10-14T13:59:44.419Z,85.32
2022-10-14T14:02:20.957Z,86.12
2022-10-14T14:04:52.144Z,86.26
2022-10-14T14:07:59.063Z,86.48
2022-10-14T14:10:09.820Z,86.27
2022-10-14T14:12:36.435Z,86.51
2022-10-14T14:15:03.859Z,86.70
2022-10-14T14:17:35.842Z,86.78
2022-10-14T14:20:02.203Z,86.64
2022-10-14T14:22:30.143Z,86.70
2022-10-14T14:28:02.923Z,87.38
2022-10-14T14:30:29.286Z,87.41
2022-10-14T14:32:57.792Z,87.27
2022-10-14T14:35:24.491Z,87.41
2022-10-14T14:37:56.183Z,87.48
2022-10-14T14:40:27.550Z,87.64
2022-10-14T14:42:55.426Z,87.60
2022-10-14T14:45:25.511Z,87.80
2022-10-14T14:47:53.714Z,87.90
2022-10-14T14:50:42.955Z,87.79
2022-10-14T14:53:23.899Z,88.05
2022-10-14T14:55:56.093Z,88.13
2022-10-14T14:58:42.821Z,88.04
2022-10-14T15:01:16.746Z,88.09
2022-10-14T15:04:12.341Z,88.35
2022-10-14T15:06:37.465Z,88.36
2022-10-14T15:09:12.302Z,88.34
2022-10-14T15:12:07.871Z,88.54
2022-10-14T15:14:45.317Z,88.42
2022-10-14T15:17:30.470Z,88.62
2022-10-14T15:19:57.843Z,88.64
2022-10-14T15:22:29.609Z,88.70
2022-10-14T15:25:01.225Z,88.78
2022-10-14T15:27:31.663Z,88.83
2022-10-14T15:30:16.606Z,88.93
2022-10-14T15:32:43.253Z,89.00
2022-10-14T15:35:12.565Z,89.16
2022-10-14T15:37:39.082Z,89.05
2022-10-14T15:40:10.543Z,89.37
2022-10-14T15:42:37.003Z,89.51
2022-10-14T15:45:03.938Z,89.61
2022-10-14T15:47:30.670Z,89.68
2022-10-14T15:49:57.116Z,89.66
2022-10-14T15:52:26.140Z,89.82
2022-10-14T15:54:53.834Z,89.93
2022-10-14T15:57:20.250Z,89.87
2022-10-14T15:59:46.684Z,90.28
2022-10-14T16:02:32.088Z,90.58
2022-10-14T16:07:45.542Z,90.78
2022-10-14T16:10:14.389Z,90.57
2022-10-14T16:12:40.926Z,90.81
2022-10-14T16:15:30.436Z,91.06
2022-10-14T16:17:56.844Z,91.11
2022-10-14T16:20:23.574Z,91.11
2022-10-14T16:22:50.011Z,90.98
2022-10-14T16:25:20.183Z,91.57
2022-10-14T16:27:46.594Z,91.39
2022-10-14T16:30:13.032Z,91.21
2022-10-14T16:32:39.461Z,91.37
2022-10-14T16:35:06.754Z,91.38
2022-10-14T16:37:33.128Z,91.70
2022-10-14T16:39:59.502Z,91.52
2022-10-14T16:42:25.883Z,91.98
2022-10-14T16:44:52.380Z,91.61
2022-10-14T16:47:20.373Z,91.73
2022-10-14T16:49:48.115Z,91.69
2022-10-14T16:52:14.651Z,92.25
2022-10-14T16:54:41.091Z,92.42
2022-10-14T16:57:08.009Z,92.73
2022-10-14T16:59:34.418Z,92.79
2022-10-14T17:02:00.946Z,92.77
2022-10-14T17:04:27.615Z,92.41
2022-10-14T17:06:54.389Z,92.35
2022-10-14T17:09:20.917Z,92.57
2022-10-14T17:11:47.393Z,92.60
2022-10-14T17:14:15.196Z,93.21
2022-10-14T17:16:42.312Z,93.12
2022-10-14T17:19:08.690Z,93.03
2022-10-14T17:21:35.069Z,93.04
2022-10-14T17:24:01.964Z,93.07
2022-10-14T17:26:31.910Z,93.17
2022-10-14T17:28:58.598Z,92.87
2022-10-14T17:31:25.520Z,92.96
2022-10-14T17:33:52.122Z,93.23
2022-10-14T17:36:18.486Z,92.99
2022-10-14T17:38:47.140Z,93.00
2022-10-14T17:41:14.109Z,93.14
2022-10-14T17:43:40.546Z,93.15
2022-10-14T17:48:42.301Z,93.29
2022-10-14T17:51:12.397Z,93.81
2022-10-14T17:53:39.486Z,93.90
2022-10-14T17:56:07.083Z,93.55
2022-10-14T17:58:33.441Z,93.96
2022-10-14T18:01:06.889Z,94.27
2022-10-14T18:03:34.079Z,94.24
2022-10-14T18:06:17.252Z,94.23
2022-10-14T18:08:44.521Z,94.00
2022-10-14T18:11:11.456Z,94.16
2022-10-14T18:13:37.996Z,94.35
2022-10-14T18:16:05.389Z,94.88
2022-10-14T18:18:31.850Z,94.98
2022-10-14T18:21:00.592Z,94.72
2022-10-14T18:23:32.029Z,94.49
2022-10-14T18:26:08.240Z,94.48
2022-10-14T18:28:38.782Z,94.73
2022-10-14T18:31:08.917Z,94.86
2022-10-14T18:33:36.651Z,94.99
2022-10-14T18:36:04.029Z,94.53
2022-10-14T18:38:30.438Z,94.61
2022-10-14T18:43:29.835Z,95.04
2022-10-14T18:46:06.763Z,94.92
2022-10-14T18:48:34.469Z,94.93
2022-10-14T18:51:01.726Z,95.43
2022-10-14T18:53:29.628Z,95.22
2022-10-14T18:55:58.153Z,95.57
2022-10-14T18:58:27.289Z,95.35
2022-10-14T19:00:53.873Z,95.72
2022-10-14T19:03:20.296Z,95.68
2022-10-14T19:05:47.241Z,95.81
2022-10-14T19:10:40.981Z,96.44
2022-10-14T19:13:09.084Z,96.16
2022-10-14T19:15:46.905Z,96.32
2022-10-14T19:18:16.470Z,95.99
2022-10-14T19:20:45.351Z,96.03
2022-10-14T19:23:11.716Z,96.11
2022-10-14T19:25:38.159Z,96.29
2022-10-14T19:28:04.672Z,96.33
2022-10-14T19:30:31.047Z,96.16
2022-10-14T19:32:57.447Z,96.18
2022-10-14T19:35:23.862Z,96.57
2022-10-14T19:37:50.224Z,96.68
2022-10-14T19:40:19.815Z,96.99
2022-10-14T19:42:49.256Z,97.09
2022-10-14T19:45:15.673Z,96.96
2022-10-14T19:47:42.081Z,97.20
2022-10-14T19:50:08.723Z,97.33
2022-10-14T19:52:35.153Z,97.58
2022-10-14T19:55:01.820Z,97.11
2022-10-14T19:57:28.273Z,97.19
2022-10-14T19:59:54.670Z,97.07
2022-10-14T20:02:21.098Z,97.30
2022-10-14T20:04:47.494Z,97.28
2022-10-14T20:07:14.075Z,97.20
2022-10-14T20:09:40.555Z,97.16
2022-10-14T20:12:07.177Z,96.88
2022-10-14T20:14:33.557Z,97.42
2022-10-14T20:17:01.708Z,97.17
2022-10-14T20:19:28.079Z,97.29
2022-10-14T20:21:54.560Z,96.96
2022-10-14T20:24:20.998Z,97.56
2022-10-14T20:26:47.359Z,97.33
2022-10-14T20:29:13.779Z,97.70
2022-10-14T20:31:40.140Z,98.19
2022-10-14T20:34:10.238Z,98.46
2022-10-14T20:36:37.554Z,97.99
2022-10-14T20:39:03.961Z,98.20
2022-10-14T20:41:30.331Z,98.24
2022-10-14T20:43:57.271Z,98.09
2022-10-14T20:46:24.878Z,98.30
2022-10-14T20:48:55.583Z,98.39
2022-10-14T20:51:22.852Z,97.92
2022-10-14T20:53:49.393Z,97.96
2022-10-14T20:56:15.817Z,98.05
2022-10-14T20:58:42.226Z,98.06
2022-10-14T21:01:09.964Z,98.06
2022-10-14T21:03:36.490Z,97.81
2022-10-14T21:06:04.360Z,97.81
2022-10-14T21:08:30.817Z,98.02
2022-10-14T21:11:01.186Z,98.29
2022-10-14T21:13:28.443Z,98.17
2022-10-14T21:15:55.349Z,98.44
2022-10-14T21:18:22.447Z,98.33
2022-10-14T21:20:48.994Z,99.29
2022-10-14T21:23:15.451Z,99.35
2022-10-14T21:25:42.382Z,99.15
2022-10-14T21:28:08.796Z,99.19
2022-10-14T21:30:35.188Z,99.00
2022-10-14T21:33:01.832Z,99.38
2022-10-14T21:35:28.232Z,99.85
2022-10-14T21:37:54.626Z,99.74
2022-10-14T21:40:21.124Z,99.61
2022-10-14T21:42:47.563Z,99.10
2022-10-14T21:45:14.282Z,98.95
2022-10-14T21:47:40.678Z,98.70
2022-10-14T21:50:07.359Z,99.02
2022-10-14T21:52:34.733Z,98.76
2022-10-14T21:55:01.095Z,98.72
2022-10-14T21:57:27.470Z,98.91
2022-10-14T21:59:53.831Z,98.53
2022-10-14T22:02:20.379Z,98.17
2022-10-14T22:04:46.746Z,98.33
2022-10-14T22:07:13.203Z,98.00
2022-10-14T22:09:39.594Z,98.05
2022-10-14T22:12:06.400Z,97.89
2022-10-14T22:14:32.772Z,98.28
2022-10-14T22:16:59.134Z,98.08
2022-10-14T22:19:25.559Z,98.18
2022-10-14T22:21:51.974Z,98.42
2022-10-14T22:24:18.386Z,98.37
2022-10-14T22:26:44.781Z,98.38
2022-10-14T22:29:15.202Z,98.18
2022-10-14T22:31:41.638Z,98.11
2022-10-14T22:34:08.543Z,98.14
2022-10-14T22:36:35.373Z,98.53
2022-10-14T22:39:03.063Z,98.83
2022-10-14T22:41:34.983Z,98.91
2022-10-14T22:44:02.075Z,98.35
2022-10-14T22:46:29.784Z,98.65
2022-10-14T22:48:57.017Z,98.30
2022-10-14T22:51:24.873Z,97.85
2022-10-14T22:53:51.477Z,97.56
2022-10-14T22:56:22.067Z,96.94
2022-10-14T22:58:52.268Z,96.89
2022-10-14T23:01:18.744Z,96.54
2022-10-14T23:03:45.179Z,96.48
2022-10-14T23:06:12.162Z,96.46
2022-10-14T23:08:38.958Z,96.35
2022-10-14T23:11:05.413Z,96.12
2022-10-14T23:13:32.035Z,96.12
2022-10-14T23:16:03.294Z,95.72
2022-10-14T23:18:30.554Z,96.13
2022-10-14T23:20:57.156Z,95.77
2022-10-14T23:23:23.680Z,95.39
2022-10-14T23:25:50.065Z,95.24
2022-10-14T23:28:16.506Z,95.56
2022-10-14T23:30:42.959Z,94.85
2022-10-14T23:33:10.932Z,94.88
2022-10-14T23:35:38.611Z,95.00
2022-10-14T23:38:05.201Z,95.11
2022-10-14T23:40:31.613Z,94.93
2022-10-14T23:42:58.358Z,95.22
2022-10-14T23:45:24.839Z,95.60
2022-10-14T23:47:51.234Z,94.89
2022-10-14T23:50:17.912Z,94.71
2022-10-14T23:52:45.889Z,94.35
2022-10-14T23:55:12.699Z,94.30
2022-10-14T23:57:40.120Z,94.75
